createdAt,value
2022-12-31T00:00:16.525Z,100577.94
2022-12-31T00:00:51.427Z,100578.19
2022-12-31T00:01:25.140Z,100585.16
2022-12-31T00:01:57.886Z,100577.94
2022-12-31T00:02:33.117Z,100581.66
2022-12-31T00:03:05.432Z,100580.84
2022-12-31T00:03:37.998Z,100579.19
2022-12-31T00:04:12.749Z,100576.72
2022-12-31T00:04:45.052Z,100582.06
2022-12-31T00:05:17.341Z,100586.56
2022-12-31T00:05:52.072Z,100577.56
2022-12-31T00:06:26.592Z,100587.38
2022-12-31T00:06:58.866Z,100580.44
2022-12-31T00:08:05.047Z,100586.16
2022-12-31T00:08:37.209Z,100585.97
2022-12-31T00:09:13.078Z,100582.91
2022-12-31T00:09:45.476Z,100588.25
2022-12-31T00:10:17.763Z,100591.50
2022-12-31T00:10:52.613Z,100586.56
2022-12-31T00:11:26.031Z,100599.69
2022-12-31T00:11:58.218Z,100582.69
2022-12-31T00:12:32.979Z,100591.69
2022-12-31T00:13:07.900Z,100582.06
2022-12-31T00:13:43.235Z,100591.09
2022-12-31T00:14:16.095Z,100585.78
2022-12-31T00:14:48.224Z,100594.78
2022-12-31T00:15:23.251Z,100602.56
2022-12-31T00:15:55.336Z,100585.97
2022-12-31T00:16:31.868Z,100588.44
2022-12-31T00:17:04.128Z,100604.63
2022-12-31T00:17:36.365Z,100601.75
2022-12-31T00:18:11.759Z,100605.44
2022-12-31T00:18:44.363Z,100599.28
2022-12-31T00:19:16.447Z,100598.66
2022-12-31T00:19:51.177Z,100596.81
2022-12-31T00:20:23.344Z,100615.91
2022-12-31T00:20:55.727Z,100611.16
2022-12-31T00:21:32.485Z,100606.66
2022-12-31T00:22:04.642Z,100607.72
2022-12-31T00:22:38.069Z,100616.28
2022-12-31T00:23:13.442Z,100603.19
2022-12-31T00:23:46.082Z,100603.59
2022-12-31T00:24:20.748Z,100614.25
2022-12-31T00:24:53.299Z,100608.94
2022-12-31T00:25:25.625Z,100603.59
2022-12-31T00:26:04.441Z,100605.44
2022-12-31T00:26:37.033Z,100599.53
2022-12-31T00:27:11.809Z,100610.78
2022-12-31T00:27:43.898Z,100613.25
2022-12-31T00:28:18.580Z,100611.41
2022-12-31T00:28:54.195Z,100615.91
2022-12-31T00:29:26.298Z,100603.00
2022-12-31T00:30:04.245Z,100613.66
2022-12-31T00:30:39.552Z,100611.78
2022-12-31T00:31:13.604Z,100600.34
2022-12-31T00:31:45.758Z,100619.00
2022-12-31T00:32:20.536Z,100605.69
2022-12-31T00:32:53.524Z,100609.34
2022-12-31T00:33:25.664Z,100610.19
2022-12-31T00:34:00.752Z,100609.13
2022-12-31T00:34:32.855Z,100607.72
2022-12-31T00:35:06.177Z,100606.69
2022-12-31T00:35:40.849Z,100612.03
2022-12-31T00:36:15.293Z,100610.19
2022-12-31T00:36:47.454Z,100610.19
2022-12-31T00:37:22.137Z,100611.00
2022-12-31T00:37:54.333Z,100608.34
2022-12-31T00:38:26.404Z,100610.19
2022-12-31T00:39:02.727Z,100607.50
2022-12-31T00:39:34.901Z,100611.19
2022-12-31T00:40:09.030Z,100612.22
2022-12-31T00:40:43.722Z,100607.72
2022-12-31T00:41:16.913Z,100610.56
2022-12-31T00:41:51.602Z,100609.78
2022-12-31T00:42:23.766Z,100615.69
2022-12-31T00:42:56.003Z,100615.91
2022-12-31T00:43:30.782Z,100621.22
2022-12-31T00:44:05.786Z,100615.31
2022-12-31T00:44:37.871Z,100619.00
2022-12-31T00:45:10.944Z,100617.97
2022-12-31T00:45:45.643Z,100619.81
2022-12-31T00:46:18.603Z,100619.00
2022-12-31T00:46:50.913Z,100614.50
2022-12-31T00:47:26.504Z,100626.97
2022-12-31T00:47:58.667Z,100622.69
2022-12-31T00:48:31.016Z,100622.69
2022-12-31T00:49:05.740Z,100617.34
2022-12-31T00:49:37.952Z,100612.03
2022-12-31T00:50:10.412Z,100617.78
2022-12-31T00:50:45.159Z,100616.75
2022-12-31T00:51:19.562Z,100618.78
2022-12-31T00:51:54.519Z,100616.13
2022-12-31T00:52:26.586Z,100619.81
2022-12-31T00:52:58.719Z,100616.34
2022-12-31T00:53:33.639Z,100617.97
2022-12-31T00:54:06.097Z,100619.81
2022-12-31T00:54:38.388Z,100624.34
2022-12-31T00:55:13.128Z,100622.47
2022-12-31T00:55:45.199Z,100628.44
2022-12-31T00:56:20.212Z,100632.09
2022-12-31T00:56:54.934Z,100626.19
2022-12-31T00:57:27.017Z,100626.38
2022-12-31T00:57:59.160Z,100630.88
2022-12-31T00:58:36.513Z,100627.41
2022-12-31T00:59:08.616Z,100631.09
2022-12-31T00:59:40.741Z,100627.63
2022-12-31T01:00:17.045Z,100626.81
2022-12-31T01:00:49.132Z,100627.81
2022-12-31T01:01:23.080Z,100631.31
2022-12-31T01:01:58.033Z,100627.81
2022-12-31T01:02:30.371Z,100635.81
2022-12-31T01:03:02.692Z,100639.31
2022-12-31T01:03:37.485Z,100638.28
2022-12-31T01:04:12.436Z,100634.78
2022-12-31T01:04:47.423Z,100638.47
2022-12-31T01:05:19.515Z,100640.31
2022-12-31T01:05:51.658Z,100638.66
2022-12-31T01:06:26.650Z,100641.13
2022-12-31T01:06:58.781Z,100636.00
2022-12-31T01:07:33.472Z,100637.03
2022-12-31T01:08:06.137Z,100638.06
2022-12-31T01:08:38.345Z,100632.94
2022-12-31T01:09:14.705Z,100639.09
2022-12-31T01:09:46.820Z,100639.28
2022-12-31T01:10:40.268Z,100641.13
2022-12-31T01:11:19.331Z,100635.63
2022-12-31T01:11:54.518Z,100640.97
2022-12-31T01:12:26.644Z,100640.13
2022-12-31T01:12:59.760Z,100637.47
2022-12-31T01:13:37.138Z,100638.28
2022-12-31T01:14:11.100Z,100640.97
2022-12-31T01:14:47.075Z,100640.13
2022-12-31T01:15:19.177Z,100651.81
2022-12-31T01:15:51.416Z,100638.28
2022-12-31T01:16:28.583Z,100635.84
2022-12-31T01:17:00.756Z,100644.84
2022-12-31T01:17:35.562Z,100640.31
2022-12-31T01:18:08.899Z,100637.66
2022-12-31T01:18:41.162Z,100632.53
2022-12-31T01:19:18.561Z,100638.50
2022-12-31T01:19:50.948Z,100639.50
2022-12-31T01:20:23.066Z,100643.81
2022-12-31T01:20:55.250Z,100634.19
2022-12-31T01:21:30.106Z,100643.63
2022-12-31T01:22:02.324Z,100638.69
2022-12-31T01:22:37.086Z,100645.66
2022-12-31T01:23:10.866Z,100649.34
2022-12-31T01:23:42.997Z,100639.50
2022-12-31T01:24:18.510Z,100640.53
2022-12-31T01:24:50.662Z,100653.00
2022-12-31T01:25:22.759Z,100638.69
2022-12-31T01:25:57.433Z,100645.03
2022-12-31T01:26:30.033Z,100645.84
2022-12-31T01:27:04.794Z,100644.84
2022-12-31T01:27:36.923Z,100651.19
2022-12-31T01:28:09.720Z,100648.50
2022-12-31T01:28:47.023Z,100652.22
2022-12-31T01:29:19.391Z,100645.25
2022-12-31T01:29:51.473Z,100643.59
2022-12-31T01:30:26.130Z,100646.28
2022-12-31T01:30:59.013Z,100645.25
2022-12-31T01:31:31.475Z,100645.25
2022-12-31T01:32:06.469Z,100642.59
2022-12-31T01:32:38.571Z,100646.91
2022-12-31T01:33:10.710Z,100640.75
2022-12-31T01:33:45.961Z,100639.69
2022-12-31T01:34:18.072Z,100642.38
2022-12-31T01:34:50.161Z,100639.69
2022-12-31T01:35:24.927Z,100641.56
2022-12-31T01:36:02.417Z,100646.06
2022-12-31T01:36:38.548Z,100650.56
2022-12-31T01:37:10.706Z,100646.28
2022-12-31T01:37:42.799Z,100643.59
2022-12-31T01:38:21.311Z,100658.56
2022-12-31T01:38:54.482Z,100649.94
2022-12-31T01:39:29.441Z,100647.28
2022-12-31T01:40:01.614Z,100647.50
2022-12-31T01:40:37.571Z,100652.84
2022-12-31T01:41:12.778Z,100653.84
2022-12-31T01:41:49.544Z,100653.03
2022-12-31T01:42:21.687Z,100647.91
2022-12-31T01:42:57.650Z,100652.22
2022-12-31T01:43:50.615Z,100653.44
2022-12-31T01:44:48.943Z,100643.19
2022-12-31T01:45:21.365Z,100649.75
2022-12-31T01:45:57.361Z,100646.88
2022-12-31T01:46:36.613Z,100649.53
2022-12-31T01:47:15.680Z,100653.44
2022-12-31T01:47:54.644Z,100647.28
2022-12-31T01:48:28.629Z,100658.75
2022-12-31T01:49:05.034Z,100652.63
2022-12-31T01:49:43.391Z,100650.78
2022-12-31T01:50:20.328Z,100647.28
2022-12-31T01:50:56.535Z,100652.84
2022-12-31T01:51:31.523Z,100652.00
2022-12-31T01:52:08.968Z,100651.19
2022-12-31T01:52:48.237Z,100647.72
2022-12-31T01:53:21.164Z,100654.03
2022-12-31T01:53:53.535Z,100640.75
2022-12-31T01:54:30.025Z,100653.03
2022-12-31T01:55:08.107Z,100649.53
2022-12-31T01:55:50.098Z,100649.75
2022-12-31T01:56:23.963Z,100647.31
2022-12-31T01:56:57.492Z,100660.59
2022-12-31T01:57:32.883Z,100657.94
2022-12-31T01:58:10.474Z,100662.44
2022-12-31T01:58:51.327Z,100654.66
2022-12-31T01:59:25.730Z,100662.03
2022-12-31T01:59:59.888Z,100660.41
2022-12-31T02:00:35.194Z,100665.09
2022-12-31T02:01:09.370Z,100658.94
2022-12-31T02:01:41.672Z,100658.13
2022-12-31T02:02:18.503Z,100659.56
2022-12-31T02:02:51.169Z,100661.59
2022-12-31T02:03:24.428Z,100659.75
2022-12-31T02:04:00.089Z,100662.44
2022-12-31T02:04:32.272Z,100654.44
2022-12-31T02:05:13.669Z,100659.75
2022-12-31T02:05:53.807Z,100660.78
2022-12-31T02:06:32.438Z,100661.00
2022-12-31T02:07:09.688Z,100662.84
2022-12-31T02:07:43.398Z,100668.97
2022-12-31T02:08:18.729Z,100656.69
2022-12-31T02:08:51.098Z,100663.66
2022-12-31T02:09:23.424Z,100662.03
2022-12-31T02:09:58.210Z,100661.19
2022-12-31T02:10:30.307Z,100671.84
2022-12-31T02:11:02.474Z,100668.97
2022-12-31T02:11:38.359Z,100658.34
2022-12-31T02:12:11.115Z,100662.84
2022-12-31T02:12:43.372Z,100662.03
2022-12-31T02:13:18.716Z,100669.19
2022-12-31T02:13:58.635Z,100667.53
2022-12-31T02:14:36.574Z,100669.59
2022-12-31T02:15:09.747Z,100671.44
2022-12-31T02:15:52.275Z,100670.41
2022-12-31T02:16:34.604Z,100675.94
2022-12-31T02:17:14.939Z,100668.97
2022-12-31T02:17:56.445Z,100668.13
2022-12-31T02:18:37.544Z,100673.47
2022-12-31T02:19:38.498Z,100672.03
2022-12-31T02:20:26.878Z,100676.72
2022-12-31T02:21:36.364Z,100677.13
2022-12-31T02:22:18.072Z,100681.41
2022-12-31T02:23:11.093Z,100675.28
2022-12-31T02:24:12.603Z,100675.28
2022-12-31T02:25:04.984Z,100681.00
2022-12-31T02:25:53.526Z,100675.69
2022-12-31T02:26:43.395Z,100678.34
2022-12-31T02:27:31.878Z,100671.38
2022-12-31T02:28:20.189Z,100673.44
2022-12-31T02:29:17.828Z,100668.31
2022-12-31T02:30:11.365Z,100670.16
2022-12-31T02:30:48.097Z,100679.78
2022-12-31T02:31:26.829Z,100677.94
2022-12-31T02:32:05.646Z,100677.94
2022-12-31T02:32:58.356Z,100682.44
2022-12-31T02:33:38.409Z,100682.63
2022-12-31T02:34:16.471Z,100688.75
2022-12-31T02:34:52.664Z,100686.94
2022-12-31T02:35:32.400Z,100682.44
2022-12-31T02:36:11.353Z,100689.59
2022-12-31T02:36:47.312Z,100688.75
2022-12-31T02:37:24.758Z,100686.09
2022-12-31T02:38:01.935Z,100687.13
2022-12-31T02:38:43.290Z,100686.94
2022-12-31T02:39:16.005Z,100690.59
2022-12-31T02:39:49.257Z,100689.59
2022-12-31T02:40:23.017Z,100691.22
2022-12-31T02:40:57.979Z,100689.41
2022-12-31T02:41:45.140Z,100698.19
2022-12-31T02:42:17.431Z,100698.38
2022-12-31T02:42:55.542Z,100698.38
2022-12-31T02:43:28.427Z,100698.38
2022-12-31T02:44:00.746Z,100693.06
2022-12-31T02:44:37.931Z,100695.53
2022-12-31T02:45:16.441Z,100693.69
2022-12-31T02:46:00.978Z,100695.53
2022-12-31T02:46:43.051Z,100698.38
2022-12-31T02:47:23.135Z,100694.91
2022-12-31T02:48:09.051Z,100692.25
2022-12-31T02:48:49.277Z,100695.09
2022-12-31T02:49:31.628Z,100695.09
2022-12-31T02:50:18.867Z,100691.66
2022-12-31T02:50:58.211Z,100686.50
2022-12-31T02:51:42.831Z,100690.81
2022-12-31T02:52:22.843Z,100700.81
2022-12-31T02:53:02.970Z,100699.19
2022-12-31T02:54:05.664Z,100698.34
2022-12-31T02:54:48.892Z,100695.28
2022-12-31T02:55:33.719Z,100688.94
2022-12-31T02:56:12.791Z,100690.59
2022-12-31T02:56:59.567Z,100695.28
2022-12-31T02:57:44.093Z,100689.34
2022-12-31T02:58:48.090Z,100682.19
2022-12-31T02:59:38.476Z,100685.06
2022-12-31T03:00:30.888Z,100679.91
2022-12-31T03:01:18.192Z,100681.75
2022-12-31T03:02:10.470Z,100683.41
2022-12-31T03:02:48.444Z,100682.59
2022-12-31T03:03:21.725Z,100683.41
2022-12-31T03:04:14.094Z,100690.19
2022-12-31T03:04:53.164Z,100675.44
2022-12-31T03:05:29.536Z,100681.56
2022-12-31T03:06:03.364Z,100684.03
2022-12-31T03:06:35.682Z,100684.03
2022-12-31T03:07:12.801Z,100680.38
2022-12-31T03:07:45.761Z,100680.38
2022-12-31T03:08:22.624Z,100683.81
2022-12-31T03:09:09.832Z,100683.81
2022-12-31T03:09:44.697Z,100690.19
2022-12-31T03:10:17.139Z,100688.34
2022-12-31T03:10:49.513Z,100685.28
2022-12-31T03:11:36.445Z,100685.28
2022-12-31T03:12:35.184Z,100692.44
2022-12-31T03:13:09.883Z,100690.38
2022-12-31T03:13:42.009Z,100693.66
2022-12-31T03:14:14.289Z,100697.94
2022-12-31T03:14:46.593Z,100695.09
2022-12-31T03:15:26.262Z,100690.59
2022-12-31T03:15:58.357Z,100693.44
2022-12-31T03:16:30.568Z,100692.44
2022-12-31T03:17:05.271Z,100690.59
2022-12-31T03:17:37.394Z,100694.06
2022-12-31T03:18:14.149Z,100699.41
2022-12-31T03:19:02.151Z,100702.88
2022-12-31T03:19:49.330Z,100699.59
2022-12-31T03:20:39.420Z,100692.03
2022-12-31T03:21:28.645Z,100697.53
2022-12-31T03:22:15.785Z,100695.06
2022-12-31T03:22:47.876Z,100705.91
2022-12-31T03:23:25.395Z,100701.19
2022-12-31T03:24:12.794Z,100708.16
2022-12-31T03:25:00.062Z,100703.03
2022-12-31T03:25:35.367Z,100693.44
2022-12-31T03:26:10.094Z,100691.59
2022-12-31T03:26:42.206Z,100698.75
2022-12-31T03:27:14.307Z,100698.53
2022-12-31T03:27:47.335Z,100694.03
2022-12-31T03:28:24.674Z,100700.38
2022-12-31T03:28:56.765Z,100695.28
2022-12-31T03:29:28.851Z,100699.78
2022-12-31T03:30:00.944Z,100695.47
2022-12-31T03:30:40.268Z,100695.47
2022-12-31T03:31:12.557Z,100699.53
2022-12-31T03:31:44.711Z,100699.34
2022-12-31T03:32:17.035Z,100698.53
2022-12-31T03:32:52.400Z,100703.03
2022-12-31T03:33:25.881Z,100701.19
2022-12-31T03:34:00.575Z,100703.03
2022-12-31T03:34:32.669Z,100705.69
2022-12-31T03:35:06.477Z,100695.88
2022-12-31T03:35:42.681Z,100702.84
2022-12-31T03:36:15.774Z,100701.19
2022-12-31T03:36:47.926Z,100701.19
2022-12-31T03:37:22.582Z,100704.44
2022-12-31T03:37:54.907Z,100697.50
2022-12-31T03:38:29.582Z,100700.19
2022-12-31T03:39:01.679Z,100696.47
2022-12-31T03:39:33.977Z,100698.13
2022-12-31T03:40:08.488Z,100697.09
2022-12-31T03:40:44.548Z,100696.28
2022-12-31T03:41:16.678Z,100695.28
2022-12-31T03:41:48.752Z,100691.78
2022-12-31T03:42:20.859Z,100694.25
2022-12-31T03:42:55.856Z,100692.22
2022-12-31T03:43:27.988Z,100687.91
2022-12-31T03:44:00.131Z,100692.22
2022-12-31T03:44:34.801Z,100699.34
2022-12-31T03:45:10.607Z,100689.72
2022-12-31T03:45:47.988Z,100693.22
2022-12-31T03:46:20.331Z,100685.47
2022-12-31T03:46:52.456Z,100687.91
2022-12-31T03:47:24.535Z,100686.06
2022-12-31T03:47:59.292Z,100694.03
2022-12-31T03:48:31.420Z,100686.28
2022-12-31T03:49:03.525Z,100689.72
2022-12-31T03:49:35.628Z,100689.72
2022-12-31T03:50:12.366Z,100689.72
2022-12-31T03:50:44.836Z,100688.13
2022-12-31T03:51:16.971Z,100692.41
2022-12-31T03:51:51.677Z,100692.41
2022-12-31T03:52:23.897Z,100685.47
2022-12-31T03:52:58.786Z,100684.41
2022-12-31T03:53:30.923Z,100688.13
2022-12-31T03:54:03.076Z,100690.56
2022-12-31T03:54:37.783Z,100687.72
2022-12-31T03:55:11.320Z,100697.53
2022-12-31T03:55:46.123Z,100690.38
2022-12-31T03:56:18.263Z,100695.88
2022-12-31T03:56:53.004Z,100704.50
2022-12-31T03:57:30.039Z,100695.88
2022-12-31T03:58:02.129Z,100692.22
2022-12-31T03:58:36.831Z,100697.53
2022-12-31T03:59:08.892Z,100701.19
2022-12-31T03:59:41.049Z,100700.19
2022-12-31T04:00:20.413Z,100695.69
2022-12-31T04:00:55.113Z,100700.19
2022-12-31T04:01:27.548Z,100692.41
2022-12-31T04:01:59.849Z,100690.56
2022-12-31T04:02:34.928Z,100700.81
2022-12-31T04:03:07.179Z,100702.66
2022-12-31T04:03:42.023Z,100699.16
2022-12-31T04:04:14.115Z,100707.16
2022-12-31T04:04:46.208Z,100708.16
2022-12-31T04:05:22.477Z,100712.47
2022-12-31T04:05:55.464Z,100709.16
2022-12-31T04:06:27.725Z,100707.56
2022-12-31T04:07:02.519Z,100716.31
2022-12-31T04:07:34.748Z,100713.88
2022-12-31T04:08:09.425Z,100715.53
2022-12-31T04:08:41.561Z,100714.91
2022-12-31T04:09:13.707Z,100720.22
2022-12-31T04:09:48.381Z,100713.25
2022-12-31T04:10:20.981Z,100721.22
2022-12-31T04:10:55.720Z,100724.91
2022-12-31T04:11:27.824Z,100721.44
2022-12-31T04:11:59.931Z,100719.81
2022-12-31T04:12:36.300Z,100719.81
2022-12-31T04:13:08.414Z,100720.81
2022-12-31T04:13:40.539Z,100715.69
2022-12-31T04:14:12.649Z,100711.19
2022-12-31T04:14:47.324Z,100714.06
2022-12-31T04:15:21.060Z,100717.50
2022-12-31T04:15:58.401Z,100713.25
2022-12-31T04:16:32.335Z,100719.56
2022-12-31T04:17:04.837Z,100713.44
2022-12-31T04:17:39.605Z,100714.25
2022-12-31T04:18:11.719Z,100715.06
2022-12-31T04:18:43.846Z,100715.91
2022-12-31T04:19:18.573Z,100714.06
2022-12-31T04:19:50.704Z,100716.72
2022-12-31T04:20:25.467Z,100719.38
2022-12-31T04:21:02.079Z,100718.34
2022-12-31T04:21:35.302Z,100719.38
2022-12-31T04:22:10.569Z,100719.38
2022-12-31T04:22:42.735Z,100722.84
2022-12-31T04:23:19.461Z,100732.47
2022-12-31T04:23:51.567Z,100728.16
2022-12-31T04:24:24.112Z,100731.63
2022-12-31T04:24:58.763Z,100740.44
2022-12-31T04:25:30.882Z,100733.47
2022-12-31T04:26:02.993Z,100739.59
2022-12-31T04:26:38.077Z,100740.44
2022-12-31T04:27:10.278Z,100744.75
2022-12-31T04:27:43.958Z,100739.41
2022-12-31T04:28:18.721Z,100739.41
2022-12-31T04:28:50.796Z,100745.56
2022-12-31T04:29:23.117Z,100743.72
2022-12-31T04:29:57.804Z,100737.59
2022-12-31T04:30:29.913Z,100741.91
2022-12-31T04:31:04.731Z,100737.59
2022-12-31T04:31:36.951Z,100734.94
2022-12-31T04:32:12.553Z,100736.56
2022-12-31T04:32:44.841Z,100739.22
2022-12-31T04:33:17.433Z,100743.50
2022-12-31T04:33:49.604Z,100742.91
2022-12-31T04:34:24.659Z,100743.72
2022-12-31T04:34:56.840Z,100734.94
2022-12-31T04:35:28.979Z,100738.41
2022-12-31T04:36:04.149Z,100737.59
2022-12-31T04:36:36.368Z,100738.41
2022-12-31T04:37:11.084Z,100741.06
2022-12-31T04:37:43.222Z,100743.91
2022-12-31T04:38:15.464Z,100744.75
2022-12-31T04:38:50.189Z,100741.06
2022-12-31T04:39:22.338Z,100744.56
2022-12-31T04:39:57.930Z,100750.69
2022-12-31T04:40:56.669Z,100735.94
2022-12-31T04:41:29.004Z,100742.84
2022-12-31T04:42:01.106Z,100741.66
2022-12-31T04:42:35.879Z,100750.66
2022-12-31T04:43:08.023Z,100752.28
2022-12-31T04:43:40.186Z,100747.81
2022-12-31T04:44:14.965Z,100753.13
2022-12-31T04:44:47.084Z,100753.13
2022-12-31T04:45:21.795Z,100751.28
2022-12-31T04:45:54.009Z,100747.81
2022-12-31T04:46:30.818Z,100749.41
2022-12-31T04:47:05.524Z,100753.72
2022-12-31T04:47:37.684Z,100757.41
2022-12-31T04:48:10.035Z,100753.94
2022-12-31T04:48:42.332Z,100745.97
2022-12-31T04:49:18.211Z,100749.41
2022-12-31T04:49:50.319Z,100753.94
2022-12-31T04:50:22.460Z,100753.13
2022-12-31T04:50:57.127Z,100760.06
2022-12-31T04:51:30.791Z,100753.94
2022-12-31T04:52:05.942Z,100761.91
2022-12-31T04:52:42.751Z,100761.09
2022-12-31T04:53:15.281Z,100758.63
2022-12-31T04:53:50.320Z,100755.13
2022-12-31T04:54:22.599Z,100755.97
2022-12-31T04:54:57.301Z,100765.78
2022-12-31T04:55:29.491Z,100755.31
2022-12-31T04:56:01.782Z,100760.66
2022-12-31T04:56:37.006Z,100757.97
2022-12-31T04:57:09.114Z,100757.38
2022-12-31T04:57:41.725Z,100753.72
2022-12-31T04:58:13.811Z,100753.72
2022-12-31T04:58:48.571Z,100755.31
2022-12-31T04:59:20.715Z,100755.53
2022-12-31T04:59:52.844Z,100756.38
2022-12-31T05:00:27.552Z,100757.19
2022-12-31T05:00:59.911Z,100757.19
2022-12-31T05:01:37.393Z,100756.38
2022-12-31T05:02:09.844Z,100763.31
2022-12-31T05:02:42.226Z,100761.47
2022-12-31T05:03:14.492Z,100763.13
2022-12-31T05:03:49.669Z,100768.63
2022-12-31T05:04:21.757Z,100766.78
2022-12-31T05:04:53.895Z,100762.28
2022-12-31T05:05:28.613Z,100770.09
2022-12-31T05:06:02.136Z,100771.91
2022-12-31T05:06:34.238Z,100774.56
2022-12-31T05:07:09.181Z,100768.25
2022-12-31T05:07:41.273Z,100769.44
2022-12-31T05:08:14.195Z,100772.94
2022-12-31T05:08:49.558Z,100765.97
2022-12-31T05:09:24.218Z,100775.81
2022-12-31T05:09:56.392Z,100777.63
2022-12-31T05:10:31.575Z,100778.47
2022-12-31T05:11:03.892Z,100785.63
2022-12-31T05:11:37.977Z,100780.28
2022-12-31T05:12:12.625Z,100782.13
2022-12-31T05:12:44.723Z,100781.31
2022-12-31T05:13:17.153Z,100784.78
2022-12-31T05:13:51.838Z,100783.78
2022-12-31T05:14:24.059Z,100789.28
2022-12-31T05:14:56.334Z,100780.28
2022-12-31T05:15:31.078Z,100784.97
2022-12-31T05:16:04.242Z,100783.97
2022-12-31T05:16:41.529Z,100791.13
2022-12-31T05:17:13.700Z,100783.72
2022-12-31T05:17:45.859Z,100779.22
2022-12-31T05:18:18.363Z,100783.72
2022-12-31T05:18:53.031Z,100781.91
2022-12-31T05:19:26.242Z,100779.41
2022-12-31T05:19:58.384Z,100774.31
2022-12-31T05:20:33.236Z,100773.09
2022-12-31T05:21:06.512Z,100769.81
2022-12-31T05:21:41.260Z,100778.59
2022-12-31T05:22:28.511Z,100771.84
2022-12-31T05:23:00.855Z,100766.09
2022-12-31T05:23:35.586Z,100770.41
2022-12-31T05:24:08.472Z,100772.25
2022-12-31T05:24:40.577Z,100772.25
2022-12-31T05:25:15.253Z,100773.06
2022-12-31T05:25:48.517Z,100767.75
2022-12-31T05:26:23.326Z,100770.41
2022-12-31T05:26:55.504Z,100774.91
2022-12-31T05:27:31.202Z,100774.91
2022-12-31T05:28:06.500Z,100776.75
2022-12-31T05:28:38.938Z,100773.25
2022-12-31T05:29:13.655Z,100780.22
2022-12-31T05:29:45.762Z,100769.78
2022-12-31T05:30:18.761Z,100767.13
2022-12-31T05:30:54.370Z,100773.25
2022-12-31T05:31:27.035Z,100776.09
2022-12-31T05:32:01.817Z,100776.09
2022-12-31T05:32:37.527Z,100777.09
2022-12-31T05:33:09.829Z,100777.09
2022-12-31T05:33:41.992Z,100780.81
2022-12-31T05:34:16.737Z,100776.31
2022-12-31T05:34:48.842Z,100775.69
2022-12-31T05:35:20.963Z,100772.19
2022-12-31T05:35:57.995Z,100784.47
2022-12-31T05:36:32.121Z,100776.69
2022-12-31T05:37:04.335Z,100775.88
2022-12-31T05:37:36.665Z,100777.50
2022-12-31T05:38:11.610Z,100775.88
2022-12-31T05:38:43.758Z,100783.84
2022-12-31T05:39:15.998Z,100775.88
2022-12-31T05:39:50.747Z,100785.47
2022-12-31T05:40:23.077Z,100781.19
2022-12-31T05:41:02.841Z,100783.00
2022-12-31T05:41:37.675Z,100776.91
2022-12-31T05:42:09.789Z,100774.44
2022-12-31T05:42:41.975Z,100772.38
2022-12-31T05:43:16.741Z,100776.06
2022-12-31T05:43:50.366Z,100772.59
2022-12-31T05:44:22.444Z,100775.25
2022-12-31T05:44:57.177Z,100774.63
2022-12-31T05:45:31.165Z,100780.94
2022-12-31T05:46:07.538Z,100766.03
2022-12-31T05:46:39.804Z,100773.19
2022-12-31T05:47:15.047Z,100769.69
2022-12-31T05:47:49.915Z,100767.22
2022-12-31T05:48:22.389Z,100771.72
2022-12-31T05:48:57.138Z,100770.88
2022-12-31T05:49:29.233Z,100771.09
2022-12-31T05:50:01.424Z,100773.75
2022-12-31T05:50:36.125Z,100779.91
2022-12-31T05:51:09.429Z,100769.47
2022-12-31T05:51:41.671Z,100770.47
2022-12-31T05:52:16.511Z,100770.47
2022-12-31T05:52:48.806Z,100774.78
2022-12-31T05:53:20.935Z,100774.94
2022-12-31T05:53:55.720Z,100777.59
2022-12-31T05:54:27.890Z,100773.94
2022-12-31T05:55:00.037Z,100774.16
2022-12-31T05:55:34.762Z,100775.78
2022-12-31T05:56:07.117Z,100774.16
2022-12-31T05:56:39.244Z,100771.50
2022-12-31T05:57:14.170Z,100769.84
2022-12-31T05:57:46.317Z,100769.84
2022-12-31T05:58:21.318Z,100771.69
2022-12-31T05:58:53.506Z,100782.31
2022-12-31T05:59:25.799Z,100779.47
2022-12-31T05:59:57.977Z,100776.81
2022-12-31T06:00:32.643Z,100772.50
2022-12-31T06:01:05.145Z,100781.31
2022-12-31T06:01:37.603Z,100771.50
2022-12-31T06:02:12.431Z,100768.22
2022-12-31T06:02:47.234Z,100770.88
2022-12-31T06:03:22.253Z,100769.22
2022-12-31T06:03:55.421Z,100779.84
2022-12-31T06:04:27.768Z,100778.00
2022-12-31T06:05:03.026Z,100770.03
2022-12-31T06:05:35.189Z,100775.53
2022-12-31T06:06:10.840Z,100773.69
2022-12-31T06:06:43.087Z,100770.44
2022-12-31T06:07:16.518Z,100773.09
2022-12-31T06:07:51.207Z,100769.63
2022-12-31T06:08:24.178Z,100768.59
2022-12-31T06:08:56.312Z,100768.59
2022-12-31T06:09:31.001Z,100772.09
2022-12-31T06:10:03.192Z,100778.19
2022-12-31T06:10:37.899Z,100772.09
2022-12-31T06:11:10.096Z,100777.19
2022-12-31T06:11:42.335Z,100771.25
2022-12-31T06:12:17.180Z,100778.19
2022-12-31T06:12:49.276Z,100777.19
2022-12-31T06:13:21.362Z,100775.34
2022-12-31T06:13:56.201Z,100776.19
2022-12-31T06:14:28.301Z,100779.84
2022-12-31T06:15:00.663Z,100771.88
2022-12-31T06:15:40.438Z,100775.34
2022-12-31T06:16:13.026Z,100772.09
2022-12-31T06:16:45.220Z,100781.88
2022-12-31T06:17:20.732Z,100772.09
2022-12-31T06:17:55.498Z,100775.75
2022-12-31T06:18:27.570Z,100777.59
2022-12-31T06:19:02.553Z,100779.22
2022-12-31T06:19:34.777Z,100779.41
2022-12-31T06:20:12.848Z,100780.25
2022-12-31T06:20:47.938Z,100782.25
2022-12-31T06:21:21.461Z,100784.91
2022-12-31T06:21:53.565Z,100780.63
2022-12-31T06:22:28.430Z,100785.13
2022-12-31T06:23:00.528Z,100789.63
2022-12-31T06:23:32.667Z,100792.44
2022-12-31T06:24:08.202Z,100787.97
2022-12-31T06:24:40.330Z,100793.28
2022-12-31T06:25:15.121Z,100797.59
2022-12-31T06:25:47.213Z,100795.09
2022-12-31T06:26:19.307Z,100786.31
2022-12-31T06:26:54.010Z,100782.66
2022-12-31T06:27:26.164Z,100781.00
2022-12-31T06:27:58.341Z,100783.47
2022-12-31T06:28:35.823Z,100780.00
2022-12-31T06:29:08.086Z,100779.16
2022-12-31T06:29:40.393Z,100778.56
2022-12-31T06:30:16.508Z,100785.50
2022-12-31T06:30:49.037Z,100784.88
2022-12-31T06:31:21.276Z,100777.72
2022-12-31T06:31:53.402Z,100789.97
2022-12-31T06:32:28.173Z,100783.03
2022-12-31T06:33:02.983Z,100776.09
2022-12-31T06:33:35.706Z,100779.56
2022-12-31T06:34:10.575Z,100785.69
2022-12-31T06:34:42.664Z,100781.22
2022-12-31T06:35:17.980Z,100778.34
2022-12-31T06:35:55.141Z,100787.97
2022-12-31T06:36:27.290Z,100781.00
2022-12-31T06:37:02.379Z,100781.66
2022-12-31T06:37:34.837Z,100782.47
2022-12-31T06:38:06.977Z,100781.44
2022-12-31T06:38:43.330Z,100782.25
2022-12-31T06:39:15.470Z,100782.25
2022-12-31T06:39:47.784Z,100777.75
2022-12-31T06:40:25.464Z,100787.38
2022-12-31T06:40:57.559Z,100790.88
2022-12-31T06:41:29.664Z,100789.84
2022-12-31T06:42:01.844Z,100785.38